createdAt,value
2022-08-22T00:02:32.907Z,100408.72
2022-08-22T00:02:46.231Z,100385.22
2022-08-22T00:02:46.944Z,100408.56
2022-08-22T00:02:58.682Z,100411.66
2022-08-22T00:03:04.983Z,100387.00
2022-08-22T00:03:08.058Z,100399.28
2022-08-22T00:05:07.367Z,100415.28
2022-08-22T00:07:47.184Z,100363.56
2022-08-22T00:10:25.464Z,100379.00
2022-08-22T00:13:04.653Z,100411.41
2022-08-22T00:15:43.148Z,100421.84
2022-08-22T00:18:16.804Z,100419.88
2022-08-22T00:20:50.553Z,100284.13
2022-08-22T00:23:23.784Z,100418.88
2022-08-22T00:25:57.377Z,100352.31
2022-08-22T00:28:32.906Z,100366.56
2022-08-22T00:31:09.195Z,100415.00
2022-08-22T00:33:46.256Z,100334.97
2022-08-22T00:36:20.757Z,100397.41
2022-08-22T00:38:54.872Z,100419.53
2022-08-22T00:41:37.190Z,100416.25
2022-08-22T00:44:32.565Z,100409.91
2022-08-22T00:47:12.856Z,100404.13
2022-08-22T00:49:55.897Z,100417.94
2022-08-22T00:52:55.233Z,100413.22
2022-08-22T00:55:35.884Z,100422.44
2022-08-22T00:58:42.415Z,100415.69
2022-08-22T01:01:15.703Z,100414.78
2022-08-22T01:04:28.706Z,100416.44
2022-08-22T01:07:11.252Z,100373.69
2022-08-22T01:09:52.418Z,100420.41
2022-08-22T01:12:39.901Z,100417.94
2022-08-22T01:15:11.633Z,100418.09
2022-08-22T01:18:29.757Z,100413.47
2022-08-22T01:21:34.147Z,100420.94
2022-08-22T01:25:00.784Z,100418.41
2022-08-22T01:27:58.929Z,100408.25
2022-08-22T01:30:47.933Z,100375.47
2022-08-22T01:33:45.523Z,100412.72
2022-08-22T01:36:32.272Z,100420.44
2022-08-22T01:39:21.436Z,100404.69
2022-08-22T01:42:15.346Z,100346.63
2022-08-22T01:45:16.734Z,100419.00
2022-08-22T01:47:56.532Z,100406.16
2022-08-22T01:50:30.426Z,100409.50
2022-08-22T01:53:06.998Z,100416.63
2022-08-22T01:55:43.803Z,100360.53
2022-08-22T01:58:17.740Z,100417.41
2022-08-22T02:01:19.297Z,100400.78
2022-08-22T02:04:00.549Z,100414.91
2022-08-22T02:06:39.701Z,100409.41
2022-08-22T02:09:15.657Z,100411.06
2022-08-22T02:11:50.519Z,100413.09
2022-08-22T02:14:30.642Z,100412.31
2022-08-22T02:17:15.057Z,100415.44
2022-08-22T02:19:51.037Z,100419.13
2022-08-22T02:22:29.572Z,100403.94
2022-08-22T02:25:08.919Z,100359.44
2022-08-22T02:27:52.152Z,100319.19
2022-08-22T02:30:23.040Z,100390.75
2022-08-22T02:33:01.150Z,100407.09
2022-08-22T02:35:35.740Z,100417.03
2022-08-22T02:38:16.830Z,100369.13
2022-08-22T02:40:54.555Z,100407.50
2022-08-22T02:43:28.633Z,100406.41
2022-08-22T02:46:03.602Z,100405.66
2022-08-22T02:48:40.487Z,100401.97
2022-08-22T02:51:16.512Z,100407.38
2022-08-22T02:53:52.751Z,100270.75
2022-08-22T02:56:27.878Z,100406.09
2022-08-22T02:59:00.122Z,100416.44
2022-08-22T03:01:40.861Z,100408.66
2022-08-22T03:04:47.238Z,100394.94
2022-08-22T03:07:27.016Z,100407.59
2022-08-22T03:10:07.563Z,100356.97
2022-08-22T03:12:45.584Z,100400.44
2022-08-22T03:15:23.577Z,100306.91
2022-08-22T03:17:57.272Z,100383.13
2022-08-22T03:20:43.563Z,100380.41
2022-08-22T03:23:21.930Z,100399.72
2022-08-22T03:25:57.468Z,100399.88
2022-08-22T03:28:32.884Z,100399.97
2022-08-22T03:31:12.327Z,100408.84
2022-08-22T03:33:40.682Z,100375.69
2022-08-22T03:36:23.222Z,100396.13
2022-08-22T03:39:08.781Z,100385.88
2022-08-22T03:42:09.872Z,100401.56
2022-08-22T03:45:08.056Z,100393.88
2022-08-22T03:48:12.526Z,100396.50
2022-08-22T03:51:04.815Z,100355.63
2022-08-22T03:53:53.077Z,100397.56
2022-08-22T03:56:42.376Z,100305.19
2022-08-22T03:59:30.924Z,100322.00
2022-08-22T04:02:42.222Z,100343.75
2022-08-22T04:05:42.030Z,100401.81
2022-08-22T04:08:37.543Z,100376.16
2022-08-22T04:11:41.345Z,100385.28
2022-08-22T04:14:39.713Z,100416.13
2022-08-22T04:17:51.040Z,100422.56
2022-08-22T04:20:41.502Z,100414.69
2022-08-22T04:23:30.889Z,100416.56
2022-08-22T04:26:10.739Z,100422.31
2022-08-22T04:28:46.134Z,100410.28
2022-08-22T04:31:17.255Z,100427.69
2022-08-22T04:33:50.618Z,100437.63
2022-08-22T04:36:24.857Z,100409.72
2022-08-22T04:39:00.753Z,100435.00
2022-08-22T04:41:47.239Z,100434.84
2022-08-22T04:44:20.235Z,100440.81
2022-08-22T04:46:55.423Z,100441.94
2022-08-22T04:49:38.017Z,100436.19
2022-08-22T04:52:14.082Z,100427.91
2022-08-22T04:54:54.593Z,100439.84
2022-08-22T04:57:32.575Z,100394.50
2022-08-22T05:00:02.599Z,100438.09
2022-08-22T05:02:31.216Z,100437.22
2022-08-22T05:05:04.345Z,100438.47
2022-08-22T05:07:36.555Z,100405.63
2022-08-22T05:10:12.005Z,100378.66
2022-08-22T05:12:44.784Z,100438.47
2022-08-22T05:15:23.225Z,100440.91
2022-08-22T05:17:54.817Z,100454.00
2022-08-22T05:20:27.275Z,100357.31
2022-08-22T05:22:59.358Z,100446.59
2022-08-22T05:25:32.220Z,100448.22
2022-08-22T05:28:13.239Z,100415.22
2022-08-22T05:30:41.968Z,100438.81
2022-08-22T05:33:27.567Z,100452.91
2022-08-22T05:36:03.625Z,100449.03
2022-08-22T05:38:35.413Z,100430.66
2022-08-22T05:41:07.481Z,100406.81
2022-08-22T05:43:40.153Z,100437.03
2022-08-22T05:46:17.834Z,100450.72
2022-08-22T05:48:55.506Z,100352.66
2022-08-22T05:51:31.298Z,100447.09
2022-08-22T05:54:12.193Z,100450.34
2022-08-22T05:56:46.061Z,100446.53
2022-08-22T05:59:24.669Z,100455.50
2022-08-22T06:02:03.244Z,100455.94
2022-08-22T06:04:37.153Z,100425.81
2022-08-22T06:07:13.780Z,100441.97
2022-08-22T06:10:08.376Z,100450.72
2022-08-22T06:12:43.147Z,100446.91
2022-08-22T06:15:21.070Z,100450.91
2022-08-22T06:17:51.714Z,100448.03
2022-08-22T06:20:22.332Z,100451.69
2022-08-22T06:22:55.266Z,100452.84
2022-08-22T06:25:26.819Z,100448.13
2022-08-22T06:27:56.685Z,100451.44
2022-08-22T06:30:29.264Z,100325.56
2022-08-22T06:33:03.964Z,100461.16
2022-08-22T06:35:50.710Z,100461.38
2022-08-22T06:38:21.490Z,100454.53
2022-08-22T06:40:50.949Z,100460.75
2022-08-22T06:43:19.716Z,100462.41
2022-08-22T06:45:48.609Z,100462.00
2022-08-22T06:48:20.233Z,100468.00
2022-08-22T06:50:54.521Z,100461.72
2022-08-22T06:53:28.338Z,100462.94
2022-08-22T06:55:57.873Z,100470.25
2022-08-22T06:58:34.131Z,100470.00
2022-08-22T07:01:12.317Z,100471.97
2022-08-22T07:03:45.112Z,100435.16
2022-08-22T07:06:17.195Z,100462.19
2022-08-22T07:08:47.487Z,100466.91
2022-08-22T07:11:18.561Z,100470.91
2022-08-22T07:13:52.542Z,100472.25
2022-08-22T07:16:29.878Z,100467.78
2022-08-22T07:18:58.729Z,100466.78
2022-08-22T07:21:30.160Z,100462.19
2022-08-22T07:24:02.496Z,100470.56
2022-08-22T07:26:38.227Z,100465.03
2022-08-22T07:29:12.042Z,100427.69
2022-08-22T07:31:46.756Z,100466.56
2022-08-22T07:34:33.379Z,100466.13
2022-08-22T07:37:08.302Z,100473.38
2022-08-22T07:39:43.961Z,100468.50
2022-08-22T07:42:15.775Z,100482.78
2022-08-22T07:45:06.825Z,100472.72
2022-08-22T07:47:53.358Z,100481.22
2022-08-22T07:50:25.582Z,100475.78
2022-08-22T07:52:59.022Z,100471.44
2022-08-22T07:55:28.668Z,100460.84
2022-08-22T07:57:59.372Z,100470.41
2022-08-22T08:00:28.957Z,100478.78
2022-08-22T08:03:00.365Z,100458.19
2022-08-22T08:05:32.244Z,100400.94
2022-08-22T08:08:03.711Z,100436.59
2022-08-22T08:10:35.500Z,100476.56
2022-08-22T08:13:08.774Z,100462.34
2022-08-22T08:15:40.286Z,100474.00
2022-08-22T08:18:14.237Z,100474.00
2022-08-22T08:20:42.386Z,100467.59
2022-08-22T08:23:19.500Z,100469.56
2022-08-22T08:26:01.353Z,100465.47
2022-08-22T08:28:35.074Z,100465.09
2022-08-22T08:31:14.681Z,100464.84
2022-08-22T08:33:47.246Z,100458.66
2022-08-22T08:36:33.685Z,100465.34
2022-08-22T08:39:14.110Z,100456.53
2022-08-22T08:42:25.960Z,100461.56
2022-08-22T08:45:24.874Z,100457.38
2022-08-22T08:48:17.448Z,100461.25
2022-08-22T08:51:02.868Z,100453.56
2022-08-22T08:54:05.156Z,100449.56
2022-08-22T08:56:39.377Z,100431.97
2022-08-22T08:59:27.683Z,100425.22
2022-08-22T09:02:20.698Z,100436.34
2022-08-22T09:05:19.513Z,100435.81
2022-08-22T09:08:24.743Z,100420.06
2022-08-22T09:11:46.378Z,100439.78
2022-08-22T09:14:29.789Z,100438.59
2022-08-22T09:17:27.216Z,100414.59
2022-08-22T09:20:20.107Z,100433.31
2022-08-22T09:23:33.414Z,100426.09
2022-08-22T09:26:12.752Z,100420.28
2022-08-22T09:28:47.951Z,100429.78
2022-08-22T09:31:48.096Z,100365.69
2022-08-22T09:34:28.848Z,100374.81
2022-08-22T09:37:14.415Z,100417.03
2022-08-22T09:39:53.737Z,100351.91
2022-08-22T09:42:32.532Z,100407.38
2022-08-22T09:45:34.262Z,100413.41
2022-08-22T09:48:11.368Z,100403.88
2022-08-22T09:50:54.588Z,100406.53
2022-08-22T09:53:45.145Z,100402.50
2022-08-22T09:56:21.042Z,100400.59
2022-08-22T09:59:02.466Z,100392.81
2022-08-22T10:01:35.355Z,100392.00
2022-08-22T10:04:45.883Z,100387.72
2022-08-22T10:07:33.276Z,100394.63
2022-08-22T10:10:11.530Z,100385.22
2022-08-22T10:12:50.959Z,100379.78
2022-08-22T10:15:24.270Z,100381.56
2022-08-22T10:18:04.968Z,100371.59
2022-08-22T10:20:46.634Z,100379.38
2022-08-22T10:23:22.180Z,100376.38
2022-08-22T10:25:54.732Z,100360.06
2022-08-22T10:28:37.832Z,100373.75
2022-08-22T10:31:19.131Z,100355.34
2022-08-22T10:34:00.482Z,100362.19
2022-08-22T10:36:37.436Z,100363.22
2022-08-22T10:39:11.608Z,100284.25
2022-08-22T10:42:01.717Z,100312.13
2022-08-22T10:44:40.102Z,100356.00
2022-08-22T10:47:14.981Z,100342.19
2022-08-22T10:49:51.588Z,100351.09
2022-08-22T10:52:25.062Z,100352.19
2022-08-22T10:55:01.422Z,100356.31
2022-08-22T10:57:52.960Z,100354.78
2022-08-22T11:00:38.383Z,100351.41
2022-08-22T11:03:21.855Z,100335.16
2022-08-22T11:05:54.335Z,100272.91
2022-08-22T11:08:37.243Z,100340.22
2022-08-22T11:11:39.195Z,100353.09
2022-08-22T11:14:36.782Z,100341.75
2022-08-22T11:17:30.846Z,100308.53
2022-08-22T11:20:16.949Z,100347.41
2022-08-22T11:23:06.418Z,100337.56
2022-08-22T11:25:52.439Z,100342.97
2022-08-22T11:28:57.901Z,100336.47
2022-08-22T11:31:51.961Z,100281.91
2022-08-22T11:34:38.962Z,100336.13
2022-08-22T11:37:13.852Z,100342.22
2022-08-22T11:39:47.612Z,100340.47
2022-08-22T11:42:29.554Z,100288.22
2022-08-22T11:45:01.334Z,100342.53
2022-08-22T11:47:35.206Z,100295.13
2022-08-22T11:50:14.742Z,100315.66
2022-08-22T11:53:04.761Z,100340.75
2022-08-22T11:55:42.923Z,100341.44
2022-08-22T11:58:28.752Z,100340.47
2022-08-22T12:01:03.395Z,100345.22
2022-08-22T12:03:50.998Z,100338.00
2022-08-22T12:06:59.200Z,100325.94
2022-08-22T12:09:38.668Z,100334.09
2022-08-22T12:12:21.829Z,100145.81
2022-08-22T12:14:59.231Z,100336.47
2022-08-22T12:17:55.043Z,100327.16
2022-08-22T12:20:45.520Z,100310.22
2022-08-22T12:23:43.453Z,100335.56
2022-08-22T12:26:27.462Z,100319.06
2022-08-22T12:29:16.909Z,100314.63
2022-08-22T12:32:12.946Z,100317.84
2022-08-22T12:34:52.462Z,100316.41
2022-08-22T12:37:26.441Z,100309.88
2022-08-22T12:40:26.388Z,100296.97
2022-08-22T12:43:27.790Z,100296.69
2022-08-22T12:46:16.156Z,100290.00
2022-08-22T12:49:07.684Z,100289.09
2022-08-22T12:51:55.784Z,100280.91
2022-08-22T12:54:59.817Z,100280.44
2022-08-22T12:57:40.395Z,100276.28
2022-08-22T13:00:26.789Z,100278.00
2022-08-22T13:02:56.068Z,100281.75
2022-08-22T13:05:28.306Z,100267.94
2022-08-22T13:08:02.350Z,100269.75
2022-08-22T13:10:42.138Z,100268.66
2022-08-22T13:13:16.968Z,100271.53
2022-08-22T13:15:58.872Z,100273.69
2022-08-22T13:18:36.158Z,100217.41
2022-08-22T13:21:14.509Z,100260.47
2022-08-22T13:23:47.059Z,100259.47
2022-08-22T13:26:31.811Z,100253.97
2022-08-22T13:29:25.212Z,100255.09
2022-08-22T13:31:59.043Z,100258.38
2022-08-22T13:34:39.619Z,100259.84
2022-08-22T13:37:16.693Z,100246.66
2022-08-22T13:39:49.074Z,100245.78
2022-08-22T13:42:27.898Z,100253.91
2022-08-22T13:45:02.634Z,100253.66
2022-08-22T13:47:34.516Z,100249.13
2022-08-22T13:50:12.349Z,100248.78
2022-08-22T13:52:52.566Z,100238.00
2022-08-22T13:55:31.819Z,100242.66
2022-08-22T13:58:07.573Z,100243.31
2022-08-22T14:01:05.516Z,100238.13
2022-08-22T14:03:40.975Z,100242.56
2022-08-22T14:06:37.029Z,100239.09
2022-08-22T14:09:17.347Z,100235.38
2022-08-22T14:12:11.935Z,100234.66
2022-08-22T14:14:42.611Z,100236.09
2022-08-22T14:17:17.693Z,100177.44
2022-08-22T14:19:58.600Z,100233.69
2022-08-22T14:22:31.694Z,100227.56
2022-08-22T14:25:07.898Z,100220.22
2022-08-22T14:27:39.980Z,100231.22
2022-08-22T14:30:15.847Z,100229.44
2022-08-22T14:32:50.180Z,100233.25
2022-08-22T14:35:34.754Z,100212.50
2022-08-22T14:38:27.140Z,100224.47
2022-08-22T14:41:03.264Z,100220.56
2022-08-22T14:43:56.897Z,100220.22
2022-08-22T14:46:29.970Z,100219.88
2022-08-22T14:49:26.953Z,100217.84
2022-08-22T14:52:06.579Z,100215.78
2022-08-22T14:54:37.892Z,100210.78
2022-08-22T14:57:20.114Z,100206.16
2022-08-22T14:59:51.241Z,100206.97
2022-08-22T15:02:27.603Z,100209.44
2022-08-22T15:04:57.170Z,100204.78
2022-08-22T15:07:30.986Z,100206.84
2022-08-22T15:10:03.601Z,100197.38
2022-08-22T15:12:38.797Z,100196.69
2022-08-22T15:15:11.937Z,100174.72
2022-08-22T15:17:44.650Z,100193.81
2022-08-22T15:20:27.588Z,100186.63
2022-08-22T15:22:59.797Z,100188.00
2022-08-22T15:25:31.440Z,100158.44
2022-08-22T15:28:05.711Z,100189.44
2022-08-22T15:30:44.595Z,100190.56
2022-08-22T15:33:18.852Z,100179.91
2022-08-22T15:35:48.224Z,100181.59
2022-08-22T15:38:29.487Z,100184.09
2022-08-22T15:41:18.766Z,100184.91
2022-08-22T15:43:49.926Z,100101.00
2022-08-22T15:46:29.819Z,100167.56
2022-08-22T15:49:02.653Z,100177.56
2022-08-22T15:51:40.612Z,100170.50
2022-08-22T15:54:24.993Z,100174.16
2022-08-22T15:57:16.535Z,100177.94
2022-08-22T15:59:55.856Z,100162.34
2022-08-22T16:02:30.076Z,100166.25
2022-08-22T16:05:22.974Z,100172.91
2022-08-22T16:08:02.683Z,100174.06
2022-08-22T16:10:35.805Z,100156.50
2022-08-22T16:13:15.997Z,100163.38
2022-08-22T16:16:01.284Z,100166.16
2022-08-22T16:19:10.374Z,100168.41
2022-08-22T16:22:05.662Z,100161.72
2022-08-22T16:24:55.811Z,100160.16
2022-08-22T16:27:28.021Z,100160.69
2022-08-22T16:30:08.856Z,100159.31
2022-08-22T16:32:37.786Z,100164.47
2022-08-22T16:35:06.223Z,100152.97
2022-08-22T16:37:48.865Z,100144.19
2022-08-22T16:40:23.837Z,100161.34
2022-08-22T16:43:12.085Z,100163.34
2022-08-22T16:45:44.730Z,100163.00
2022-08-22T16:48:35.470Z,100156.09
2022-08-22T16:51:10.734Z,100145.13
2022-08-22T16:54:08.705Z,100168.03
2022-08-22T16:57:05.850Z,100165.06
2022-08-22T17:00:00.570Z,100160.88
2022-08-22T17:02:46.964Z,100105.75
2022-08-22T17:05:41.194Z,100164.53
2022-08-22T17:08:35.166Z,100163.78
2022-08-22T17:11:13.717Z,100160.88
2022-08-22T17:14:03.938Z,100161.59
2022-08-22T17:16:53.393Z,100160.38
2022-08-22T17:19:29.781Z,100161.88
2022-08-22T17:22:02.208Z,100148.31
2022-08-22T17:24:38.493Z,100154.72
2022-08-22T17:27:17.823Z,100170.31
2022-08-22T17:29:59.185Z,100170.31
2022-08-22T17:32:35.989Z,100119.13
2022-08-22T17:35:17.501Z,100090.56
2022-08-22T17:37:56.191Z,100173.13
2022-08-22T17:40:37.398Z,100173.84
2022-08-22T17:43:16.741Z,100178.22
2022-08-22T17:46:02.180Z,100185.34
2022-08-22T17:48:36.008Z,100181.44
2022-08-22T17:51:16.895Z,100157.34
2022-08-22T17:53:49.316Z,100175.75
2022-08-22T17:56:23.751Z,100196.75
2022-08-22T17:59:01.595Z,100202.94
2022-08-22T18:01:50.219Z,100201.91
2022-08-22T18:04:26.134Z,100177.38
2022-08-22T18:07:01.937Z,100213.06
2022-08-22T18:09:38.419Z,100182.34
2022-08-22T18:12:22.289Z,100218.69
2022-08-22T18:14:54.778Z,100222.78
2022-08-22T18:17:31.549Z,100225.53
2022-08-22T18:20:05.476Z,100200.22
2022-08-22T18:22:41.217Z,100152.50
2022-08-22T18:25:30.447Z,100216.91
2022-08-22T18:28:04.837Z,100230.75
2022-08-22T18:30:37.817Z,100228.03
2022-08-22T18:33:13.508Z,100227.56
2022-08-22T18:35:49.783Z,100199.19
2022-08-22T18:38:29.559Z,100219.34
2022-08-22T18:41:04.761Z,100237.03
2022-08-22T18:43:38.688Z,100235.16
2022-08-22T18:46:32.936Z,100229.94
2022-08-22T18:49:15.952Z,100247.28
2022-08-22T18:51:45.710Z,100147.72
2022-08-22T18:54:38.143Z,100244.97
2022-08-22T18:57:30.873Z,100228.25
2022-08-22T19:00:08.539Z,100249.84
2022-08-22T19:03:04.651Z,100246.84
2022-08-22T19:06:09.026Z,100245.25
2022-08-22T19:09:02.032Z,100212.03
2022-08-22T19:11:47.214Z,100235.19
2022-08-22T19:14:34.661Z,100251.16
2022-08-22T19:17:58.762Z,100253.59
2022-08-22T19:20:47.353Z,100254.44
2022-08-22T19:23:49.073Z,100254.59
2022-08-22T19:26:30.917Z,100253.47
2022-08-22T19:29:02.281Z,100257.88
2022-08-22T19:31:48.043Z,100260.59
2022-08-22T19:34:22.086Z,100240.44
2022-08-22T19:37:33.150Z,100266.59
2022-08-22T19:40:09.056Z,100258.94
2022-08-22T19:42:40.153Z,100260.06
2022-08-22T19:45:19.889Z,100261.78
2022-08-22T19:48:00.169Z,100253.41
2022-08-22T19:50:35.401Z,100265.03
2022-08-22T19:53:28.726Z,100265.94
2022-08-22T19:56:08.239Z,100249.31
2022-08-22T19:58:52.340Z,100208.66
2022-08-22T20:01:47.020Z,100261.94
2022-08-22T20:04:38.207Z,100271.72
2022-08-22T20:07:16.571Z,100277.47
2022-08-22T20:09:54.176Z,100279.03
2022-08-22T20:12:33.089Z,100256.81
2022-08-22T20:15:13.216Z,100276.91
2022-08-22T20:17:43.384Z,100286.69
2022-08-22T20:20:35.962Z,100283.50
2022-08-22T20:23:12.824Z,100269.66
2022-08-22T20:25:49.443Z,100292.31
2022-08-22T20:28:35.522Z,100299.69
2022-08-22T20:31:08.526Z,100289.31
2022-08-22T20:33:40.085Z,100305.19
2022-08-22T20:36:27.094Z,100308.31
2022-08-22T20:39:01.327Z,100305.88
2022-08-22T20:41:35.692Z,100278.75
2022-08-22T20:44:13.471Z,100248.28
2022-08-22T20:46:53.361Z,100284.81
2022-08-22T20:49:26.187Z,100315.25
2022-08-22T20:51:57.820Z,100314.56
2022-08-22T20:54:28.742Z,100307.69
2022-08-22T20:57:00.050Z,100262.09
2022-08-22T20:59:36.996Z,100335.38
2022-08-22T21:02:12.485Z,100331.06
2022-08-22T21:05:02.084Z,100306.59
2022-08-22T21:07:33.177Z,100332.16
2022-08-22T21:10:23.185Z,100336.91
2022-08-22T21:13:12.399Z,100324.59
2022-08-22T21:15:45.231Z,100343.75
2022-08-22T21:18:15.708Z,100346.47
2022-08-22T21:20:43.986Z,100343.97
2022-08-22T21:23:15.288Z,100341.28
2022-08-22T21:25:56.658Z,100338.19
2022-08-22T21:28:30.581Z,100275.16
2022-08-22T21:31:01.780Z,100342.84
2022-08-22T21:33:29.866Z,100337.84
2022-08-22T21:36:00.809Z,100327.25
2022-08-22T21:38:29.189Z,100342.63
2022-08-22T21:41:04.598Z,100332.56
2022-08-22T21:43:38.018Z,100331.88
2022-08-22T21:46:08.849Z,100329.22
2022-08-22T21:48:41.294Z,100325.47
2022-08-22T21:51:23.554Z,100324.16
2022-08-22T21:54:03.728Z,100294.69
2022-08-22T21:56:39.947Z,100330.47
2022-08-22T21:59:25.504Z,100330.81
2022-08-22T22:01:56.074Z,100327.41
2022-08-22T22:04:24.783Z,100174.13
2022-08-22T22:06:52.763Z,100287.25
2022-08-22T22:09:20.763Z,100331.53
2022-08-22T22:11:48.735Z,100327.56
2022-08-22T22:14:16.635Z,100262.59
2022-08-22T22:16:44.883Z,100267.28
2022-08-22T22:19:14.319Z,100321.06
2022-08-22T22:21:42.223Z,100328.34
2022-08-22T22:24:10.251Z,100328.84
2022-08-22T22:26:38.333Z,100323.47
2022-08-22T22:29:07.811Z,100320.81
2022-08-22T22:31:36.887Z,100330.00
2022-08-22T22:34:05.167Z,100247.31
2022-08-22T22:36:35.537Z,100299.56
2022-08-22T22:39:05.588Z,100328.38
2022-08-22T22:41:33.912Z,100329.63
2022-08-22T22:44:02.008Z,100333.75
2022-08-22T22:46:30.815Z,100328.69
2022-08-22T22:48:59.297Z,100328.50
2022-08-22T22:51:27.617Z,100327.25
2022-08-22T22:53:58.399Z,100331.13
2022-08-22T22:56:26.678Z,100306.13
2022-08-22T22:59:00.812Z,100309.88
2022-08-22T23:02:02.267Z,100319.25
2022-08-22T23:04:30.647Z,100333.88
2022-08-22T23:06:58.632Z,100343.19
2022-08-22T23:09:38.335Z,100335.19
2022-08-22T23:12:13.039Z,100340.94
2022-08-22T23:14:41.223Z,100342.13
2022-08-22T23:17:09.391Z,100338.06
2022-08-22T23:19:39.028Z,100344.56
2022-08-22T23:22:08.195Z,100336.88
2022-08-22T23:24:38.969Z,100332.97
2022-08-22T23:27:09.588Z,100309.72
2022-08-22T23:29:40.838Z,100324.31
2022-08-22T23:32:11.258Z,100332.28
2022-08-22T23:34:43.809Z,100340.94
2022-08-22T23:37:13.144Z,100309.78
2022-08-22T23:39:43.490Z,100346.91
2022-08-22T23:42:12.458Z,100341.47
2022-08-22T23:44:42.161Z,100342.31
2022-08-22T23:47:10.957Z,100349.56
2022-08-22T23:49:40.653Z,100344.94
2022-08-22T23:52:10.283Z,100341.16
2022-08-22T23:54:38.646Z,100347.38
2022-08-22T23:57:11.480Z,100346.44
2022-08-22T23:59:46.387Z,100346.81
